Historique des mesures à Cassis (13260), France
Quotidien Résumé Novembre 7, 2017 Unités:  Métrique    US   Métrique/US
« Précédent (Jour)
Suivant (Jour) »
Quotidien Hebdomadaire Mensuel Annuel Période au choix
  Maximum: Minimum: Moyenne:
Température: TemperatureC °C 7.6 °C 9.4 °C
Point de rosée: DewpointC °C 1.9 °C 2.8 °C
Humidité: Humidity % 55 % 60 %
Vitesse du vent: 0 km/h 0 km/h 11.7 km/h
Rafales: 0 km/h - -
Vent:- - SSE
Pression: PressurehPa hPa 1008.0 hPa -
Précipitations: 0.0 mm    
Historical Graphs
 
 
Mesures pour : Novembre 7, 2017
Heure Temperature Point de rosée Pression Vent Vitesse du vent Rafales Humidité Pluie (par heure) Conditions
TemperatureC °C DewpointC °C PressurehPa hPa Calm     Humidity % HourlyPrecipMM mm SoftwareType W/m2
00:11 10.1 °C 1.9 °C 1009.4 hPa Calm     57 % 0.0 mm open2300-1.11 W/m2
01:10 9.8 °C 1.9 °C 1009.4 hPa WNW 9.3 km/h 16.3 km/h 58 % 0.0 mm open2300-1.11 W/m2
02:11 10.1 °C 2.4 °C 1009.7 hPa Calm   4.2 km/h 59 % 0.0 mm open2300-1.11 W/m2
03:10 9.4 °C 3.1 °C 1009.0 hPa North 10.9 km/h 10.9 km/h 65 % 0.0 mm open2300-1.11 W/m2
05:10 8.9 °C 2.2 °C 1008.4 hPa ESE 5.1 km/h 8 km/h 63 % 0.0 mm open2300-1.11 W/m2
07:10 8.4 °C 2.4 °C 1008.0 hPa Calm     66 % 0.0 mm open2300-1.11 W/m2
08:11 8.1 °C 2.1 °C 1008.4 hPa Calm     66 % 0.0 mm open2300-1.11 W/m2
09:10 8.8 °C 2.8 °C 1008.7 hPa Calm     66 % 0.0 mm open2300-1.11 W/m2
10:11 9.5 °C 3.0 °C 1009.4 hPa Calm     64 % 0.0 mm open2300-1.11 W/m2
11:10 10.5 °C 3.5 °C 1009.4 hPa WNW 33.2 km/h 33.2 km/h 62 % 0.0 mm open2300-1.11 W/m2
12:11 11.3 °C 3.6 °C 1009.4 hPa NNE 8 km/h 9.8 km/h 59 % 0.0 mm open2300-1.11 W/m2
13:11 11.8 °C 3.8 °C 1008.7 hPa North 2.3 km/h 9.3 km/h 58 % 0.0 mm open2300-1.11 W/m2
14:10 12.4 °C 3.8 °C 1009.0 hPa NNW 17.9 km/h 43.5 km/h 56 % 0.0 mm open2300-1.11 W/m2
16:10 12.9 °C 4.0 °C 1008.7 hPa North 14 km/h 26.2 km/h 55 % 0.0 mm open2300-1.11 W/m2
17:11 11.9 °C 3.6 °C 1009.4 hPa WNW 39.4 km/h 42.2 km/h 57 % 0.0 mm open2300-1.11 W/m2
18:11 10.5 °C 3.3 °C 1009.7 hPa NW 33.6 km/h 33.6 km/h 61 % 0.0 mm open2300-1.11 W/m2
19:11 9.5 °C 3.0 °C 1010.4 hPa NW 31.4 km/h 31.4 km/h 64 % 0.0 mm open2300-1.11 W/m2
20:10 8.8 °C 2.8 °C 1010.4 hPa North 13.2 km/h 34.8 km/h 66 % 0.0 mm open2300-1.11 W/m2
21:11 8.3 °C 2.5 °C 1011.1 hPa North 9.8 km/h 9.8 km/h 67 % 0.0 mm open2300-1.11 W/m2
22:10 8.0 °C 2.7 °C 1011.1 hPa NNE 19.6 km/h 19.6 km/h 69 % 0.0 mm open2300-1.11 W/m2
23:11 7.6 °C 2.5 °C 1011.4 hPa WNW 10.9 km/h 14 km/h 70 % 0.0 mm open2300-1.11 W/m2
Observations météo à CASSIS
WU-History script by Weather Underground - 1 mb